Time;durP1;ratioP1;P1;durP2;ratioP2;P2;SDS_P1;SDS_P2;PMS_P1;PMS_P2;Temp;Humidity;BMP_temperature;BMP_pressure;BME280_temperature;BME280_humidity;BME280_pressure;Samples;Min_cycle;Max_cycle;Signal;HPM_P1;HPM_P2
2022/04/21 00:01:32;;;;;;;8.00;6.07;;;10.20;99.90;;;;;;5083948;28;20282;-74
2022/04/21 00:03:59;;;;;;;7.15;5.95;;;10.10;99.90;;;;;;5076190;28;20196;-76
2022/04/21 00:06:26;;;;;;;7.90;5.65;;;10.10;99.90;;;;;;5063029;28;20195;-74
2022/04/21 00:08:54;;;;;;;7.28;5.60;;;10.10;99.90;;;;;;5071515;28;20183;-75
2022/04/21 00:11:21;;;;;;;6.63;5.95;;;10.10;99.90;;;;;;5068084;28;20395;-74
2022/04/21 00:13:52;;;;;;;8.13;6.57;;;10.10;99.90;;;;;;5074686;28;20201;-73
2022/04/21 00:16:23;;;;;;;6.68;5.75;;;10.00;99.90;;;;;;5073470;28;20398;-73
2022/04/21 00:18:50;;;;;;;8.68;5.93;;;10.00;99.90;;;;;;5069653;28;20184;-75
2022/04/21 00:23:25;;;;;;;6.97;5.70;;;9.90;99.90;;;;;;5064985;28;20262;-73
2022/04/21 00:24:07;;;;;;;6.80;6.13;;;9.80;99.90;;;;;;5054849;28;20200;-74
2022/04/21 00:26:35;;;;;;;8.38;6.05;;;9.90;99.90;;;;;;5066736;28;20415;-75
2022/04/21 00:29:03;;;;;;;8.02;5.63;;;9.80;99.90;;;;;;5048621;28;20248;-75
2022/04/21 00:31:34;;;;;;;7.90;5.68;;;9.90;99.90;;;;;;5071033;28;20188;-73
2022/04/21 00:34:02;;;;;;;6.50;5.80;;;9.80;99.90;;;;;;5084424;28;20224;-74
2022/04/21 00:36:31;;;;;;;8.65;5.88;;;9.80;99.90;;;;;;5083106;28;20352;-76
2022/04/21 00:38:58;;;;;;;6.53;5.93;;;9.70;99.90;;;;;;5076593;28;20259;-73
2022/04/21 00:41:25;;;;;;;6.43;5.05;;;9.70;99.90;;;;;;5087668;28;20213;-75
2022/04/21 00:43:53;;;;;;;8.95;6.05;;;9.70;99.90;;;;;;5067769;28;20216;-74
2022/04/21 00:46:22;;;;;;;7.30;6.50;;;9.70;99.90;;;;;;5071369;28;20250;-76
2022/04/21 00:48:51;;;;;;;8.00;6.15;;;9.60;99.90;;;;;;5086846;28;20225;-75
2022/04/21 00:51:18;;;;;;;8.07;5.53;;;9.50;99.90;;;;;;5069679;28;20290;-74
2022/04/21 00:53:45;;;;;;;7.72;6.22;;;9.50;99.90;;;;;;5070240;28;20191;-74
2022/04/21 00:56:14;;;;;;;10.10;6.45;;;9.50;99.90;;;;;;5070163;28;20195;-73
2022/04/21 00:58:43;;;;;;;6.43;5.65;;;9.40;99.90;;;;;;5073047;28;20172;-77
2022/04/21 01:04:27;;;;;;;6.43;5.78;;;9.40;99.90;;;;;;5054157;28;20176;-73
2022/04/21 01:06:56;;;;;;;9.27;5.95;;;9.40;99.90;;;;;;5077127;28;20195;-74
2022/04/21 01:09:42;;;;;;;7.30;6.22;;;9.40;99.90;;;;;;5069191;28;20227;-73
2022/04/21 01:12:11;;;;;;;7.18;6.47;;;9.40;99.90;;;;;;5053633;28;20186;-74
2022/04/21 01:14:39;;;;;;;9.38;6.13;;;9.40;99.90;;;;;;5053584;28;20254;-76
2022/04/21 01:17:08;;;;;;;6.68;5.50;;;9.40;99.90;;;;;;5053382;28;20181;-74
2022/04/21 01:19:37;;;;;;;7.22;5.57;;;9.40;99.90;;;;;;5051339;28;20189;-76
2022/04/21 01:22:07;;;;;;;7.78;5.68;;;9.40;99.90;;;;;;5069510;28;20375;-74
2022/04/21 01:24:34;;;;;;;7.47;6.70;;;9.40;99.90;;;;;;5090932;28;20212;-78
2022/04/21 01:27:09;;;;;;;8.75;6.15;;;9.30;99.90;;;;;;5055951;28;20303;-74
2022/04/21 01:29:37;;;;;;;6.32;5.68;;;9.30;99.90;;;;;;5051905;28;20206;-72
2022/04/21 01:32:11;;;;;;;12.65;6.55;;;9.20;99.90;;;;;;5051860;28;20243;-76
2022/04/21 01:34:39;;;;;;;6.90;6.20;;;9.20;99.90;;;;;;5052056;28;20215;-76
2022/04/21 01:42:47;;;;;;;12.13;7.45;;;9.00;99.90;;;;;;5071089;28;20170;-73
2022/04/21 01:45:16;;;;;;;7.05;6.03;;;8.90;99.90;;;;;;5070857;28;20547;-75
2022/04/21 01:47:43;;;;;;;6.88;6.07;;;8.90;99.90;;;;;;5050967;28;20202;-74
2022/04/21 01:50:10;;;;;;;9.93;7.38;;;8.90;99.90;;;;;;5063251;28;20205;-74
2022/04/21 01:52:39;;;;;;;9.23;6.53;;;8.80;99.90;;;;;;5073427;28;20238;-74
2022/04/21 01:55:07;;;;;;;7.40;6.30;;;8.80;99.90;;;;;;5070636;28;20573;-76
2022/04/21 01:57:34;;;;;;;8.18;7.30;;;8.80;99.90;;;;;;5059594;28;20308;-76
2022/04/21 02:00:04;;;;;;;8.05;6.70;;;8.70;99.90;;;;;;5066251;28;20219;-75
2022/04/21 02:02:32;;;;;;;9.00;7.03;;;8.70;99.90;;;;;;5079081;28;20190;-74
2022/04/21 02:05:00;;;;;;;8.65;6.60;;;8.70;99.90;;;;;;5090749;28;20203;-72
2022/04/21 02:07:27;;;;;;;9.85;6.55;;;8.70;99.90;;;;;;5072473;28;20269;-76
2022/04/21 02:10:03;;;;;;;10.88;7.22;;;8.60;99.90;;;;;;5068964;28;20394;-74
2022/04/21 02:12:30;;;;;;;7.75;6.95;;;8.50;99.90;;;;;;5068963;28;20206;-73
2022/04/21 02:15:01;;;;;;;8.23;6.82;;;8.50;99.90;;;;;;5070178;28;20207;-76
2022/04/21 02:17:28;;;;;;;11.32;6.88;;;8.50;99.90;;;;;;5069124;28;20214;-78
2022/04/21 02:19:55;;;;;;;8.45;6.57;;;8.40;99.90;;;;;;5052624;28;20184;-74
2022/04/21 02:22:23;;;;;;;10.30;7.60;;;8.40;99.90;;;;;;5048975;28;20198;-75
2022/04/21 02:24:52;;;;;;;8.70;7.10;;;8.30;99.90;;;;;;5051055;28;20195;-76
2022/04/21 02:27:20;;;;;;;8.50;6.90;;;8.30;99.90;;;;;;5050331;28;20219;-74
2022/04/21 02:29:55;;;;;;;9.88;6.95;;;8.30;99.90;;;;;;5049408;28;20184;-75
2022/04/21 02:32:22;;;;;;;10.02;7.72;;;8.20;99.90;;;;;;5070195;28;20198;-76
2022/04/21 02:34:55;;;;;;;8.98;6.30;;;8.30;99.90;;;;;;5073552;28;20214;-73
2022/04/21 02:37:23;;;;;;;9.65;6.60;;;8.20;99.90;;;;;;5049983;28;20176;-76
2022/04/21 02:39:54;;;;;;;10.05;6.30;;;8.30;99.90;;;;;;5050795;28;20187;-73
2022/04/21 02:42:25;;;;;;;11.60;8.02;;;8.20;99.90;;;;;;5050101;28;20256;-74
2022/04/21 02:44:52;;;;;;;7.20;6.50;;;8.20;99.90;;;;;;5056961;28;20302;-73
2022/04/21 02:47:20;;;;;;;9.35;6.38;;;8.20;99.90;;;;;;5068437;28;20185;-74
2022/04/21 02:49:51;;;;;;;11.35;7.75;;;8.20;99.90;;;;;;5069603;28;20190;-75
2022/04/21 02:52:25;;;;;;;11.27;7.07;;;8.20;99.90;;;;;;5074582;28;20202;-74
2022/04/21 02:57:40;;;;;;;10.07;8.13;;;8.10;99.90;;;;;;5069828;28;20185;-72
2022/04/21 03:00:09;;;;;;;9.45;6.93;;;8.10;99.90;;;;;;5069220;28;20262;-76
2022/04/21 03:02:36;;;;;;;8.65;6.80;;;8.00;99.90;;;;;;5089066;28;20208;-74
2022/04/21 03:05:04;;;;;;;7.78;6.60;;;8.00;99.90;;;;;;5054905;28;20431;-75
2022/04/21 03:07:32;;;;;;;11.48;7.45;;;8.00;99.90;;;;;;5049721;28;20219;-75
2022/04/21 03:10:00;;;;;;;11.02;6.30;;;8.00;99.90;;;;;;5049036;28;20220;-72
2022/04/21 03:12:28;;;;;;;9.50;8.07;;;8.00;99.90;;;;;;5048642;28;20223;-73
2022/04/21 03:14:57;;;;;;;9.93;7.20;;;7.90;99.90;;;;;;5054924;28;20383;-75
2022/04/21 03:17:25;;;;;;;8.45;6.65;;;7.90;99.90;;;;;;5069673;28;20189;-71
2022/04/21 03:19:52;;;;;;;8.45;6.47;;;7.90;99.90;;;;;;5069418;28;20178;-73
2022/04/21 03:25:05;;;;;;;8.45;6.53;;;7.80;99.90;;;;;;5069812;28;20203;-74
2022/04/21 03:27:32;;;;;;;8.57;6.80;;;7.80;99.90;;;;;;5068731;28;20196;-74
2022/04/21 03:30:01;;;;;;;7.40;5.80;;;7.80;99.90;;;;;;5069287;28;20201;-73
2022/04/21 03:32:29;;;;;;;10.90;6.90;;;7.80;99.90;;;;;;5076857;28;20193;-74
2022/04/21 03:34:56;;;;;;;6.90;5.95;;;7.80;99.90;;;;;;5061304;28;20196;-74
2022/04/21 03:37:23;;;;;;;7.85;6.43;;;7.80;99.90;;;;;;5049392;28;20190;-72
2022/04/21 03:39:51;;;;;;;9.13;7.90;;;7.80;99.90;;;;;;5047855;28;20248;-73
2022/04/21 03:42:19;;;;;;;7.15;6.05;;;7.80;99.90;;;;;;5049912;28;20254;-76
2022/04/21 03:44:47;;;;;;;8.45;6.80;;;7.70;99.90;;;;;;5049960;28;20260;-73
2022/04/21 03:47:16;;;;;;;9.65;6.78;;;7.80;99.90;;;;;;5049882;28;20179;-74
2022/04/21 03:49:47;;;;;;;7.70;6.70;;;7.80;99.90;;;;;;5060859;28;20227;-75
2022/04/21 03:52:15;;;;;;;9.25;7.22;;;7.80;99.90;;;;;;5082249;28;20483;-72
2022/04/21 03:54:42;;;;;;;7.07;6.35;;;7.70;99.90;;;;;;5068070;28;20437;-73
2022/04/21 03:57:10;;;;;;;10.93;7.20;;;7.60;99.90;;;;;;5082407;28;20191;-72
2022/04/21 03:59:37;;;;;;;9.35;7.38;;;7.60;99.90;;;;;;5078681;28;20191;-75
2022/04/21 04:02:11;;;;;;;8.70;6.80;;;7.50;99.90;;;;;;5072517;28;20202;-73
2022/04/21 04:04:42;;;;;;;8.40;6.40;;;7.50;99.90;;;;;;5075566;28;20208;-73
2022/04/21 04:12:41;;;;;;;8.80;7.63;;;7.40;99.90;;;;;;5065457;28;20216;-76
2022/04/21 04:15:09;;;;;;;9.80;7.45;;;7.50;99.90;;;;;;5069420;28;20406;-76
2022/04/21 04:17:39;;;;;;;8.90;6.45;;;7.50;99.90;;;;;;5081625;28;20197;-73
2022/04/21 04:20:10;;;;;;;9.52;7.38;;;7.50;99.90;;;;;;5085500;28;20227;-75
2022/04/21 04:22:40;;;;;;;7.38;6.68;;;7.50;99.90;;;;;;5076017;28;20221;-73
2022/04/21 04:25:13;;;;;;;7.55;6.75;;;7.60;99.90;;;;;;5070153;28;20205;-75
2022/04/21 04:27:40;;;;;;;9.23;7.70;;;7.60;99.90;;;;;;5092682;28;20190;-75
2022/04/21 04:30:10;;;;;;;8.70;6.70;;;7.60;99.90;;;;;;5088538;28;20195;-74
2022/04/21 04:32:37;;;;;;;9.10;6.43;;;7.70;99.90;;;;;;5084098;28;20213;-73
2022/04/21 04:35:05;;;;;;;7.65;6.90;;;7.70;99.90;;;;;;5077305;28;20338;-74
2022/04/21 04:37:33;;;;;;;9.10;6.90;;;7.70;99.90;;;;;;5051933;28;20191;-73
2022/04/21 04:40:01;;;;;;;10.52;7.50;;;7.80;99.90;;;;;;5051562;28;20187;-74
2022/04/21 04:42:28;;;;;;;9.52;7.20;;;7.80;99.90;;;;;;5051912;28;20194;-75
2022/04/21 04:47:36;;;;;;;11.70;6.97;;;7.80;99.90;;;;;;5066851;28;20350;-73
2022/04/21 04:50:03;;;;;;;9.43;6.82;;;7.90;99.90;;;;;;5080362;28;20416;-73
2022/04/21 04:52:30;;;;;;;9.77;7.25;;;7.90;99.90;;;;;;5085199;28;20261;-75
2022/04/21 04:54:59;;;;;;;9.82;7.53;;;7.90;99.90;;;;;;5080751;28;20201;-76
2022/04/21 04:57:27;;;;;;;9.75;7.32;;;8.00;99.90;;;;;;5078656;28;20224;-76
2022/04/21 04:59:54;;;;;;;13.73;7.57;;;8.00;99.90;;;;;;5071188;28;20181;-73
2022/04/21 05:02:22;;;;;;;12.48;8.18;;;8.10;99.90;;;;;;5084295;28;20214;-73
2022/04/21 05:04:49;;;;;;;7.85;7.05;;;8.10;99.90;;;;;;5077659;28;20242;-74
2022/04/21 05:07:17;;;;;;;11.48;8.43;;;8.20;99.90;;;;;;5084531;28;20194;-74
2022/04/21 05:09:44;;;;;;;9.68;7.88;;;8.30;99.90;;;;;;5063719;28;20211;-73
2022/04/21 05:12:16;;;;;;;9.60;7.50;;;8.40;99.90;;;;;;5084398;28;20190;-72
2022/04/21 05:14:43;;;;;;;15.43;8.18;;;8.50;99.90;;;;;;5073108;28;20212;-73
2022/04/21 05:17:10;;;;;;;11.65;7.70;;;8.80;99.90;;;;;;5081310;28;20228;-76
2022/04/21 05:19:38;;;;;;;7.55;6.57;;;9.20;99.90;;;;;;5074057;28;20175;-76
2022/04/21 05:22:12;;;;;;;10.80;5.97;;;9.70;99.90;;;;;;5084202;28;20194;-73
2022/04/21 05:24:40;;;;;;;11.02;6.70;;;10.30;99.90;;;;;;5066834;28;20211;-75
2022/04/21 05:27:13;;;;;;;8.95;6.55;;;10.90;99.90;;;;;;5072222;28;20230;-71
2022/04/21 05:32:29;;;;;;;7.97;6.25;;;12.20;99.90;;;;;;5076612;28;20196;-70
2022/04/21 05:35:01;;;;;;;12.32;6.63;;;12.90;99.90;;;;;;5076221;28;20278;-72
2022/04/21 05:37:29;;;;;;;9.57;6.35;;;13.70;99.40;;;;;;5072841;28;20252;-70
2022/04/21 05:39:57;;;;;;;9.52;5.90;;;14.60;96.50;;;;;;5076176;28;20252;-72
2022/04/21 05:42:26;;;;;;;8.70;7.85;;;15.40;93.80;;;;;;5072207;28;20275;-74
2022/04/21 05:44:57;;;;;;;6.70;5.70;;;15.80;91.40;;;;;;5090101;28;20251;-72
2022/04/21 05:47:27;;;;;;;8.65;5.75;;;16.30;90.30;;;;;;5067230;28;20178;-72
2022/04/21 05:49:54;;;;;;;8.10;6.17;;;16.70;89.40;;;;;;5064364;28;20202;-72
2022/04/21 05:52:24;;;;;;;7.30;6.23;;;17.20;86.40;;;;;;5057749;28;20619;-72
2022/04/21 05:54:54;;;;;;;7.00;6.30;;;17.80;84.20;;;;;;5090027;28;20716;-74
2022/04/21 05:57:22;;;;;;;8.53;5.87;;;18.50;82.00;;;;;;5078270;28;20496;-72
2022/04/21 05:59:50;;;;;;;6.53;5.93;;;19.20;79.10;;;;;;5069795;28;20553;-72
2022/04/21 06:02:17;;;;;;;7.10;5.77;;;19.50;76.40;;;;;;5082882;28;20421;-70
2022/04/21 06:04:47;;;;;;;7.17;5.30;;;20.00;75.30;;;;;;5090072;28;20677;-71
2022/04/21 06:07:15;;;;;;;9.37;6.50;;;20.30;73.60;;;;;;5070339;28;20445;-73
2022/04/21 06:09:43;;;;;;;6.07;5.40;;;20.60;71.70;;;;;;5050053;28;20450;-76
2022/04/21 06:12:10;;;;;;;6.03;5.17;;;20.50;71.30;;;;;;5049730;28;20441;-74
2022/04/21 06:14:38;;;;;;;12.00;6.47;;;20.10;71.20;;;;;;5050140;28;20466;-71
2022/04/21 06:17:07;;;;;;;6.30;5.40;;;20.10;70.60;;;;;;5058141;28;20467;-74
2022/04/21 06:19:35;;;;;;;6.20;4.80;;;20.40;72.00;;;;;;5068889;28;20425;-74
2022/04/21 06:22:03;;;;;;;7.23;5.53;;;20.60;69.50;;;;;;5055086;28;20431;-74
2022/04/21 06:24:30;;;;;;;6.47;5.47;;;21.10;69.40;;;;;;5049036;28;20454;-74
2022/04/21 06:26:58;;;;;;;6.10;4.63;;;21.70;67.80;;;;;;5050400;28;20445;-74
2022/04/21 06:29:25;;;;;;;7.37;4.70;;;22.20;66.30;;;;;;5049653;28;20462;-76
2022/04/21 06:31:53;;;;;;;5.47;4.70;;;22.40;64.30;;;;;;5075327;28;20449;-74
2022/04/21 06:34:22;;;;;;;5.33;4.10;;;22.50;63.40;;;;;;5089027;28;20732;-76
2022/04/21 06:36:49;;;;;;;6.80;4.20;;;22.50;62.60;;;;;;5088137;28;20441;-74
2022/04/21 06:39:16;;;;;;;6.57;4.63;;;22.60;61.60;;;;;;5087902;28;20418;-73
2022/04/21 06:41:43;;;;;;;7.97;5.47;;;23.10;61.90;;;;;;5067025;28;20442;-73
2022/04/21 06:49:41;;;;;;;6.33;4.70;;;24.00;58.70;;;;;;5071859;28;20210;-72
2022/04/21 06:52:09;;;;;;;6.53;4.97;;;22.60;58.10;;;;;;5073944;28;20544;-73
2022/04/21 06:54:36;;;;;;;5.13;4.33;;;22.20;60.60;;;;;;5074882;28;20472;-74
2022/04/21 06:57:04;;;;;;;8.13;4.90;;;22.30;61.30;;;;;;5077333;28;20498;-74
2022/04/21 06:59:32;;;;;;;4.53;4.13;;;22.50;60.50;;;;;;5073741;28;20581;-75
2022/04/21 07:01:59;;;;;;;9.17;4.57;;;22.50;60.30;;;;;;5082558;28;20405;-74
2022/04/21 07:04:27;;;;;;;5.17;4.40;;;22.40;60.70;;;;;;5066405;28;20561;-73
2022/04/21 07:06:57;;;;;;;5.83;4.47;;;22.20;60.80;;;;;;5059882;28;20466;-74
2022/04/21 07:09:24;;;;;;;5.53;4.33;;;21.40;61.40;;;;;;5064158;28;20461;-73
2022/04/21 07:11:52;;;;;;;6.83;4.97;;;20.70;62.90;;;;;;5075829;28;20432;-75
2022/04/21 07:14:19;;;;;;;5.87;4.23;;;19.50;64.90;;;;;;5080070;28;20453;-73
2022/04/21 07:16:46;;;;;;;5.63;4.67;;;18.90;67.10;;;;;;5074180;28;20443;-75
2022/04/21 07:19:13;;;;;;;5.13;4.17;;;18.50;69.10;;;;;;5069188;28;20422;-76
2022/04/21 07:21:41;;;;;;;4.83;4.17;;;19.20;70.40;;;;;;5082036;28;20568;-76
2022/04/21 07:24:09;;;;;;;4.33;3.93;;;20.30;68.20;;;;;;5078392;28;20509;-73
2022/04/21 07:26:38;;;;;;;6.67;3.90;;;21.90;65.20;;;;;;5061396;28;20415;-76
2022/04/21 07:29:05;;;;;;;4.30;3.77;;;23.50;61.30;;;;;;5077860;28;20523;-76
2022/04/21 07:31:33;;;;;;;4.30;3.63;;;24.50;58.70;;;;;;5081471;28;20414;-74
2022/04/21 07:34:00;;;;;;;3.40;3.10;;;25.40;57.00;;;;;;5080490;28;20437;-78
2022/04/21 07:36:27;;;;;;;5.97;3.50;;;25.20;54.50;;;;;;5074289;28;20433;-78
2022/04/21 07:38:54;;;;;;;5.57;3.90;;;23.90;55.20;;;;;;5076945;28;20449;-78
2022/04/21 07:41:25;;;;;;;6.53;4.10;;;22.80;56.30;;;;;;5080690;28;20424;-78
2022/04/21 07:43:52;;;;;;;3.93;3.50;;;22.10;58.70;;;;;;5055564;28;20434;-77
2022/04/21 07:46:21;;;;;;;7.40;3.57;;;22.20;59.70;;;;;;5070629;28;20418;-75
2022/04/21 07:51:32;;;;;;;5.43;3.47;;;22.40;58.50;;;;;;5075433;28;20448;-75
2022/04/21 07:54:11;;;;;;;8.20;3.80;;;21.70;59.30;;;;;;5071056;28;20450;-73
2022/04/21 07:56:41;;;;;;;5.30;3.20;;;21.00;59.70;;;;;;5074189;28;20437;-74
2022/04/21 07:59:10;;;;;;;5.10;3.17;;;20.00;61.20;;;;;;5068821;28;20423;-73
2022/04/21 08:01:38;;;;;;;5.77;4.30;;;18.80;62.80;;;;;;5078288;28;20468;-72
2022/04/21 08:04:20;;;;;;;6.27;3.70;;;18.10;65.00;;;;;;5077360;28;20503;-72
2022/04/21 08:06:49;;;;;;;5.30;3.23;;;17.50;66.50;;;;;;5084666;28;20571;-73
2022/04/21 08:09:16;;;;;;;4.97;3.33;;;17.00;68.40;;;;;;5062493;28;20579;-74
2022/04/21 08:11:44;;;;;;;6.70;4.00;;;16.70;69.70;;;;;;5084482;28;20437;-74
2022/04/21 08:14:17;;;;;;;5.70;3.78;;;16.50;71.40;;;;;;5068579;28;20439;-75
2022/04/21 08:16:44;;;;;;;4.72;4.22;;;16.70;72.80;;;;;;5088062;28;20216;-75
2022/04/21 08:19:13;;;;;;;9.10;3.83;;;17.10;72.60;;;;;;5075325;28;20193;-73
2022/04/21 08:21:40;;;;;;;6.73;3.90;;;17.10;72.10;;;;;;5073719;28;20328;-72
2022/04/21 08:32:41;;;;;;;5.67;3.17;;;17.80;70.00;;;;;;5073068;28;20427;-74
2022/04/21 08:35:09;;;;;;;7.00;3.73;;;17.70;69.50;;;;;;5085215;28;20484;-74
2022/04/21 08:37:46;;;;;;;4.03;3.47;;;17.70;69.70;;;;;;5073339;28;20662;-75
2022/04/21 08:40:15;;;;;;;3.50;3.20;;;18.10;70.80;;;;;;5070116;28;20681;-76
2022/04/21 08:42:44;;;;;;;4.77;4.20;;;18.50;68.70;;;;;;5062783;28;20431;-75
2022/04/21 08:45:14;;;;;;;5.00;3.83;;;18.90;67.60;;;;;;5075727;28;20717;-75
2022/04/21 08:47:46;;;;;;;6.88;4.00;;;19.20;69.10;;;;;;5078582;28;20516;-76
2022/04/21 08:50:20;;;;;;;3.90;3.50;;;19.60;69.20;;;;;;5073855;28;20207;-72
2022/04/21 08:53:01;;;;;;;5.60;3.83;;;20.30;67.40;;;;;;5082923;28;20519;-73
2022/04/21 08:55:29;;;;;;;5.07;3.43;;;21.30;64.90;;;;;;5065886;28;20483;-74
2022/04/21 08:57:57;;;;;;;5.73;3.70;;;22.00;62.00;;;;;;5053803;28;20473;-76
2022/04/21 09:00:25;;;;;;;4.90;3.30;;;22.60;61.10;;;;;;5074260;28;20543;-74
2022/04/21 09:02:54;;;;;;;4.90;4.13;;;23.00;59.30;;;;;;5063533;28;20540;-75
2022/04/21 09:05:23;;;;;;;5.87;3.70;;;23.10;59.00;;;;;;5064889;28;20458;-72
2022/04/21 09:07:51;;;;;;;6.85;3.80;;;23.40;59.70;;;;;;5073264;28;20463;-71
2022/04/21 09:10:21;;;;;;;4.43;3.43;;;24.20;57.70;;;;;;5071939;28;20270;-74
2022/04/21 09:12:52;;;;;;;4.43;3.33;;;24.00;55.70;;;;;;5041608;28;20469;-75
2022/04/21 09:15:23;;;;;;;4.60;3.20;;;24.10;55.60;;;;;;5068052;28;20598;-76
2022/04/21 09:17:54;;;;;;;5.30;3.43;;;24.10;56.20;;;;;;5063816;28;20446;-75
2022/04/21 09:20:23;;;;;;;5.90;3.60;;;24.40;55.10;;;;;;5052207;28;20435;-75
2022/04/21 09:22:55;;;;;;;5.87;3.60;;;24.10;55.10;;;;;;5057374;28;20929;-74
2022/04/21 09:25:27;;;;;;;3.47;3.17;;;23.50;56.30;;;;;;5051611;28;20585;-73
2022/04/21 09:27:57;;;;;;;5.37;3.60;;;23.50;56.50;;;;;;5050926;28;20451;-75
2022/04/21 09:30:27;;;;;;;5.13;3.10;;;23.50;56.80;;;;;;5047786;28;20472;-70
2022/04/21 09:32:56;;;;;;;5.83;4.00;;;23.40;56.30;;;;;;5052418;28;20449;-73
2022/04/21 09:35:26;;;;;;;5.00;3.93;;;22.80;56.60;;;;;;5056569;28;20935;-73
2022/04/21 09:37:57;;;;;;;7.80;4.20;;;22.30;57.90;;;;;;5060498;28;20453;-71
2022/04/21 09:40:27;;;;;;;4.00;3.60;;;22.20;57.80;;;;;;5050601;28;20430;-76
2022/04/21 09:42:56;;;;;;;4.30;3.70;;;22.60;57.80;;;;;;5062504;28;20441;-75
2022/04/21 09:48:20;;;;;;;4.30;3.53;;;22.70;57.50;;;;;;5059204;28;20421;-75
2022/04/21 09:50:53;;;;;;;4.90;3.30;;;22.60;57.00;;;;;;5050738;28;20474;-75
2022/04/21 09:53:21;;;;;;;8.87;3.37;;;22.30;58.10;;;;;;5045902;28;20464;-76
2022/04/21 09:55:50;;;;;;;4.87;3.80;;;22.20;58.70;;;;;;5064318;28;20530;-71
2022/04/21 09:58:17;;;;;;;7.10;4.00;;;22.30;58.70;;;;;;5065160;28;20437;-72
2022/04/21 10:00:47;;;;;;;4.17;3.77;;;22.80;57.90;;;;;;5067296;28;20433;-74
2022/04/21 10:03:14;;;;;;;3.67;3.13;;;23.10;57.80;;;;;;5063576;28;20962;-73
2022/04/21 10:05:43;;;;;;;6.33;3.80;;;23.70;57.30;;;;;;5074102;28;20457;-72
2022/04/21 10:08:11;;;;;;;5.40;3.80;;;24.20;56.70;;;;;;5065240;28;20496;-73
2022/04/21 10:10:41;;;;;;;5.73;3.20;;;23.50;55.70;;;;;;5051637;28;20512;-71
2022/04/21 10:13:08;;;;;;;4.70;3.77;;;23.20;56.60;;;;;;5059397;28;20454;-75
2022/04/21 10:15:36;;;;;;;5.33;3.90;;;22.50;57.30;;;;;;5069688;28;20556;-72
2022/04/21 10:18:15;;;;;;;7.80;4.03;;;22.10;58.30;;;;;;5049349;28;20450;-74
2022/04/21 10:20:44;;;;;;;4.13;3.60;;;21.80;59.80;;;;;;5040655;28;20441;-73
2022/04/21 10:23:16;;;;;;;4.40;4.00;;;21.90;59.90;;;;;;5054331;28;20446;-71
2022/04/21 10:25:44;;;;;;;5.30;3.57;;;21.30;59.80;;;;;;5069003;28;20472;-71
2022/04/21 10:28:40;;;;;;;6.40;4.00;;;21.50;60.20;;;;;;5046591;28;20457;-71
2022/04/21 10:31:29;;;;;;;3.53;2.93;;;21.70;60.90;;;;;;5053871;28;20480;-73
2022/04/21 10:33:59;;;;;;;3.77;3.37;;;21.70;58.40;;;;;;5056289;28;20485;-75
2022/04/21 10:36:41;;;;;;;4.33;3.20;;;21.50;57.60;;;;;;5052195;28;20496;-73
2022/04/21 10:39:30;;;;;;;4.73;3.60;;;21.10;58.20;;;;;;5059071;28;20439;-74
2022/04/21 10:42:21;;;;;;;5.53;2.93;;;20.60;59.10;;;;;;5063424;28;20453;-74
2022/04/21 10:44:52;;;;;;;4.47;3.07;;;21.00;60.10;;;;;;5061954;28;20927;-75
2022/04/21 10:47:36;;;;;;;7.40;3.40;;;21.50;59.60;;;;;;5055734;28;20448;-75
2022/04/21 10:50:15;;;;;;;5.63;3.27;;;21.60;58.80;;;;;;5055748;28;20619;-75
2022/04/21 10:58:52;;;;;;;3.63;3.13;;;21.00;59.50;;;;;;5053900;28;20409;-74
2022/04/21 11:01:22;;;;;;;4.57;4.03;;;21.00;60.10;;;;;;5055404;28;20473;-75
2022/04/21 11:04:12;;;;;;;4.33;3.40;;;21.00;60.00;;;;;;5070778;28;20450;-73
2022/04/21 11:06:46;;;;;;;5.40;3.43;;;21.30;60.60;;;;;;5076032;28;20480;-72
2022/04/21 11:09:39;;;;;;;7.73;3.60;;;21.60;59.50;;;;;;5074692;28;20517;-72
2022/04/21 11:12:07;;;;;;;5.67;3.73;;;21.90;59.70;;;;;;5045764;28;20450;-74
2022/04/21 11:14:37;;;;;;;5.20;3.60;;;22.10;59.20;;;;;;5034756;28;20501;-80
2022/04/21 11:17:09;;;;;;;5.63;3.43;;;22.00;58.60;;;;;;5035523;28;20461;-75
2022/04/21 11:19:56;;;;;;;3.30;3.00;;;21.40;58.60;;;;;;5035129;28;20446;-74
2022/04/21 11:22:43;;;;;;;8.20;3.97;;;21.30;59.40;;;;;;5052103;28;20461;-74
2022/04/21 11:25:12;;;;;;;5.30;2.80;;;21.60;60.50;;;;;;5054418;28;20465;-74
2022/04/21 11:27:45;;;;;;;4.47;3.37;;;21.80;59.90;;;;;;5054191;28;20500;-74
2022/04/21 11:30:15;;;;;;;4.80;2.93;;;21.90;59.50;;;;;;5054434;28;20477;-75
2022/04/21 11:32:51;;;;;;;4.80;3.47;;;22.00;59.60;;;;;;5045886;28;20446;-74
2022/04/21 11:35:21;;;;;;;4.00;3.30;;;21.90;59.40;;;;;;5034901;28;20474;-74
2022/04/21 11:37:57;;;;;;;3.00;2.23;;;21.90;59.30;;;;;;5055185;28;20462;-75
2022/04/21 11:40:33;;;;;;;3.90;2.53;;;21.80;59.40;;;;;;5054709;28;20473;-74
2022/04/21 11:43:03;;;;;;;3.50;3.17;;;21.70;59.60;;;;;;5034656;28;20540;-74
2022/04/21 11:45:33;;;;;;;4.33;3.27;;;21.60;60.10;;;;;;5034617;28;20469;-75
2022/04/21 11:48:02;;;;;;;3.47;2.70;;;21.50;59.20;;;;;;5033850;28;20451;-73
2022/04/21 11:50:30;;;;;;;2.90;2.60;;;21.50;60.40;;;;;;5050620;28;20507;-77
2022/04/21 11:52:59;;;;;;;6.73;3.37;;;21.50;60.30;;;;;;5051838;28;20481;-75
2022/04/21 11:55:29;;;;;;;10.40;3.37;;;21.50;60.10;;;;;;5073744;28;20465;-75
2022/04/21 11:57:57;;;;;;;3.60;2.70;;;21.70;60.10;;;;;;5074557;28;20429;-75
2022/04/21 12:08:49;;;;;;;6.20;3.63;;;21.70;59.90;;;;;;5035335;28;20422;-74
2022/04/21 12:11:19;;;;;;;4.03;2.57;;;21.60;59.60;;;;;;5034632;28;20870;-73
2022/04/21 12:13:47;;;;;;;3.17;2.80;;;21.80;59.90;;;;;;5032737;28;20530;-75
2022/04/21 12:16:50;;;;;;;3.10;2.80;;;21.70;59.40;;;;;;5033200;28;20518;-74
2022/04/21 12:19:26;;;;;;;5.07;2.80;;;21.70;59.90;;;;;;4974336;28;20421;-73
2022/04/21 12:21:59;;;;;;;4.43;3.10;;;21.50;59.90;;;;;;4966944;28;20536;-75
2022/04/21 12:24:36;;;;;;;3.00;2.70;;;21.40;59.70;;;;;;5011494;28;20527;-75
2022/04/21 12:27:14;;;;;;;3.97;2.73;;;21.20;60.30;;;;;;5032850;28;20441;-74
2022/04/21 12:29:50;;;;;;;3.57;2.90;;;20.80;60.80;;;;;;5033712;28;20435;-74
2022/04/21 12:32:20;;;;;;;3.97;3.43;;;20.80;61.50;;;;;;5052219;28;21006;-74
2022/04/21 12:34:47;;;;;;;3.53;2.50;;;20.90;61.50;;;;;;5052908;28;20532;-74
2022/04/21 12:37:14;;;;;;;3.60;3.23;;;21.00;60.80;;;;;;5051967;28;20852;-74
2022/04/21 12:39:42;;;;;;;5.63;2.67;;;21.10;60.80;;;;;;5051944;28;20915;-75
2022/04/21 12:42:10;;;;;;;3.90;2.90;;;21.00;61.30;;;;;;5055885;28;20514;-76
2022/04/21 12:44:36;;;;;;;4.50;2.70;;;21.00;61.50;;;;;;5058361;28;20553;-76
2022/04/21 12:47:06;;;;;;;4.20;2.43;;;21.20;61.20;;;;;;5061498;28;20523;-74
2022/04/21 12:49:56;;;;;;;3.40;2.73;;;21.10;61.10;;;;;;5049939;28;20474;-76
2022/04/21 12:52:46;;;;;;;3.30;3.00;;;21.10;61.00;;;;;;5053200;28;20494;-74
2022/04/21 12:55:24;;;;;;;5.43;2.67;;;20.70;61.00;;;;;;5063915;28;20560;-76
2022/04/21 12:58:00;;;;;;;5.07;2.93;;;20.70;62.50;;;;;;5067894;28;20525;-76
2022/04/21 13:00:27;;;;;;;5.97;2.97;;;20.80;61.70;;;;;;5049350;28;20437;-72
2022/04/21 13:02:54;;;;;;;3.57;3.27;;;20.70;61.40;;;;;;5065429;28;20444;-75
2022/04/21 13:05:21;;;;;;;3.60;3.17;;;20.80;61.80;;;;;;5075259;28;20963;-73
2022/04/21 13:07:48;;;;;;;6.23;3.30;;;20.90;62.50;;;;;;5075495;28;20549;-73
2022/04/21 13:10:21;;;;;;;6.90;3.00;;;21.00;62.20;;;;;;5075154;28;20436;-74
2022/04/21 13:12:48;;;;;;;4.63;2.80;;;21.10;62.00;;;;;;5057109;28;20471;-74
2022/04/21 13:15:15;;;;;;;7.53;3.80;;;21.10;61.10;;;;;;5055356;28;20545;-74
2022/04/21 13:17:42;;;;;;;5.07;3.40;;;21.20;61.40;;;;;;5053628;28;20594;-75
2022/04/21 13:20:10;;;;;;;3.37;3.07;;;20.90;61.20;;;;;;5054708;28;20520;-75
2022/04/21 13:22:36;;;;;;;3.27;2.70;;;20.60;60.60;;;;;;5073219;28;20563;-73
2022/04/21 13:25:04;;;;;;;2.93;2.47;;;20.60;60.30;;;;;;5057269;28;20457;-74
2022/04/21 13:27:32;;;;;;;3.70;2.77;;;20.40;58.20;;;;;;5055020;28;20483;-74
2022/04/21 13:29:59;;;;;;;3.27;2.50;;;20.50;57.70;;;;;;5055282;28;20464;-74
2022/04/21 13:35:10;;;;;;;3.77;3.10;;;20.70;58.50;;;;;;5066192;28;20460;-74
2022/04/21 13:37:39;;;;;;;3.23;2.20;;;20.70;58.00;;;;;;5055879;28;20524;-74
2022/04/21 13:40:07;;;;;;;10.60;2.90;;;20.40;58.30;;;;;;5073569;28;20548;-75
2022/04/21 13:42:36;;;;;;;4.80;3.23;;;20.30;58.70;;;;;;5075561;28;20507;-74
2022/04/21 13:45:02;;;;;;;5.00;3.80;;;20.30;58.50;;;;;;5075343;28;20949;-74
2022/04/21 13:47:30;;;;;;;6.30;3.40;;;20.20;59.10;;;;;;5075152;28;20433;-75
2022/04/21 13:49:56;;;;;;;5.53;2.73;;;20.40;60.10;;;;;;5065461;28;20449;-74
2022/04/21 13:52:23;;;;;;;3.00;2.67;;;20.50;59.60;;;;;;5059460;28;20520;-73
2022/04/21 13:54:50;;;;;;;9.83;3.83;;;20.60;58.30;;;;;;5064069;28;20555;-75
2022/04/21 13:57:17;;;;;;;11.03;3.73;;;20.80;59.00;;;;;;5071563;28;20441;-74
2022/04/21 13:59:46;;;;;;;3.50;2.83;;;20.80;58.50;;;;;;5055688;28;20528;-73
2022/04/21 14:02:13;;;;;;;6.00;3.40;;;20.90;58.00;;;;;;5049704;28;20451;-72
2022/04/21 14:04:40;;;;;;;3.73;3.00;;;20.60;57.70;;;;;;5065320;28;20957;-73
2022/04/21 14:07:06;;;;;;;7.13;3.53;;;20.40;58.50;;;;;;5060010;28;20544;-74